Date,TemperatureHighF,TemperatureAvgF,TemperatureLowF,DewpointHighF,DewpointAvgF,DewpointLowF,HumidityHigh,HumidityAvg,HumidityLow,PressureMaxIn,PressureMinIn,WindSpeedMaxMPH,WindSpeedAvgMPH,GustSpeedMaxMPH,PrecipitationSumIn
2013-2-1,71,55,43,50,45,40,90,70,40,30.20,30.09,10,2,15,0.00
2013-2-2,57,49,44,50,45,41,90,86,76,30.23,30.20,6,1,8,0.00
2013-2-3,59,50,43,50,45,40,91,85,68,30.23,30.12,5,1,10,0.00
2013-2-4,50,47,43,47,44,41,92,91,88,30.15,30.06,6,1,9,0.01
2013-2-5,56,50,45,50,46,42,91,86,77,30.13,30.05,7,2,12,0.00
2013-2-6,58,48,40,50,43,36,90,83,69,30.18,30.11,8,1,12,0.00
2013-2-7,56,49,40,50,44,37,92,84,62,30.13,29.97,9,2,13,0.23
2013-2-8,55,45,38,47,40,35,91,82,67,30.00,29.92,8,1,17,0.00
2013-2-9,59,47,38,44,36,27,80,65,42,30.07,29.99,7,1,7,0.00
2013-2-10,61,49,40,49,38,29,90,68,46,30.08,30.01,3,0,6,0.00
2013-2-11,64,50,43,50,41,30,91,71,33,30.19,30.05,4,1,6,0.00
2013-2-12,56,48,39,49,44,37,92,86,74,30.35,30.19,4,1,7,0.00
2013-2-13,57,47,38,50,43,36,92,87,74,30.33,30.18,4,0,6,0.01
2013-2-14,65,49,40,53,45,38,93,86,63,30.23,30.15,3,0,4,0.01
2013-2-15,74,59,46,49,43,39,83,57,34,30.24,30.17,9,1,10,0.00
2013-2-16,64,54,46,52,46,42,91,76,61,30.21,30.03,4,1,11,0.00
2013-2-17,61,50,41,49,43,37,91,79,56,30.04,29.95,4,1,10,0.00
2013-2-18,55,47,39,46,42,36,91,83,69,30.00,29.92,13,4,22,0.01
2013-2-19,50,45,39,44,39,33,91,80,67,29.95,29.73,13,5,19,0.40
2013-2-20,54,47,38,45,40,33,85,76,58,30.05,29.84,13,4,22,0.00
2013-2-21,57,49,42,46,41,35,84,75,65,30.16,30.04,6,2,13,0.00
2013-2-22,58,49,42,48,43,35,90,79,60,30.25,30.15,7,2,14,0.00
2013-2-23,54,48,42,46,41,36,91,77,57,30.26,30.15,14,4,20,0.01
2013-2-24,57,49,40,46,39,29,88,70,47,30.25,30.13,6,1,8,0.00
2013-2-25,57,49,42,49,42,37,88,79,70,30.25,30.14,8,2,16,0.00
2013-2-26,61,48,38,47,40,32,88,75,56,30.20,30.14,5,1,7,0.00
2013-2-27,60,49,40,48,43,35,90,80,55,30.34,30.19,8,1,13,0.00
2013-2-28,59,51,46,53,48,44,91,88,80,30.44,30.34,5,1,11,0.00